Terminal Aerodrome Forecast
Issued by NWS

Home | Current Version | Previous Version | Text Only | Print | Product List | Glossary On
Versions: 1 2 3 4 5 6 7 8 9 10 11 12 13 14 15 16 17 18 19 20 21
288
FTUS43 KSGF 241120
TAFJLN
TAF
KJLN 241120Z 2412/2512 VRB03KT P6SM SKC
     FM241600 17008KT P6SM FEW060 FEW200 PROB30 2500/2504 4SM -TSRA
      BKN080CB=

USA.gov is the U.S. government's official web portal to all federal, state and local government web resources and services.